createdAt,value
2017-08-18T00:00:20.791Z,82.97
2017-08-18T00:02:48.491Z,82.64
2017-08-18T00:05:16.208Z,82.44
2017-08-18T00:07:43.901Z,82.59
2017-08-18T00:10:11.680Z,82.13
2017-08-18T00:12:40.234Z,81.52
2017-08-18T00:17:55.039Z,81.88
2017-08-18T00:20:22.741Z,82.23
2017-08-18T00:22:50.505Z,82.39
2017-08-18T00:25:18.287Z,81.92
2017-08-18T00:27:45.994Z,81.77
2017-08-18T00:38:00.447Z,83.06
2017-08-18T00:40:28.138Z,82.96
2017-08-18T00:42:55.832Z,82.35
2017-08-18T00:45:23.613Z,82.54
2017-08-18T00:47:51.395Z,83.01
2017-08-18T00:50:19.093Z,82.83
2017-08-18T00:52:46.812Z,82.89
2017-08-18T00:55:14.585Z,82.68
2017-08-18T00:57:42.277Z,82.94
2017-08-18T01:00:09.985Z,83.83
2017-08-18T01:02:37.805Z,83.13
2017-08-18T01:05:05.594Z,83.27
2017-08-18T01:07:33.436Z,83.19
2017-08-18T01:10:01.193Z,83.20
2017-08-18T01:12:28.984Z,83.09
2017-08-18T01:14:56.796Z,82.16
2017-08-18T01:17:24.497Z,82.82
2017-08-18T01:19:52.328Z,83.16
2017-08-18T01:22:20.053Z,83.21
2017-08-18T01:24:47.843Z,83.76
2017-08-18T01:27:15.606Z,83.19
2017-08-18T01:29:43.340Z,82.58
2017-08-18T01:32:11.257Z,82.75
2017-08-18T01:34:39.040Z,83.20
2017-08-18T01:37:06.790Z,82.98
2017-08-18T01:39:34.592Z,83.01
2017-08-18T01:42:02.417Z,83.03
2017-08-18T01:44:30.150Z,83.32
2017-08-18T01:46:57.910Z,82.93
2017-08-18T01:49:25.625Z,83.04
2017-08-18T01:51:53.325Z,82.63
2017-08-18T01:54:21.105Z,82.81
2017-08-18T01:56:48.870Z,83.24
2017-08-18T01:59:16.707Z,83.11
2017-08-18T02:01:44.417Z,83.21
2017-08-18T02:04:12.334Z,83.81
2017-08-18T02:06:40.092Z,83.74
2017-08-18T02:09:07.809Z,83.54
2017-08-18T02:11:35.614Z,83.73
2017-08-18T02:14:03.403Z,83.17
2017-08-18T02:16:31.123Z,83.08
2017-08-18T02:18:58.875Z,83.62
2017-08-18T02:21:26.632Z,83.82
2017-08-18T02:23:54.389Z,83.63
2017-08-18T02:26:22.105Z,84.21
2017-08-18T02:28:49.810Z,84.26
2017-08-18T02:31:17.518Z,83.71
2017-08-18T02:33:45.363Z,83.68
2017-08-18T02:36:13.136Z,83.91
2017-08-18T02:38:40.881Z,83.55
2017-08-18T02:41:08.565Z,83.95
2017-08-18T02:43:36.314Z,84.35
2017-08-18T02:46:04.059Z,83.50
2017-08-18T02:48:31.817Z,84.05
2017-08-18T02:50:59.529Z,84.97
2017-08-18T02:53:27.241Z,84.55
2017-08-18T02:55:55.033Z,83.65
2017-08-18T02:58:22.749Z,83.93
2017-08-18T03:00:50.438Z,84.12
2017-08-18T03:03:18.169Z,83.83
2017-08-18T03:05:45.847Z,84.42
2017-08-18T03:08:13.567Z,84.08
2017-08-18T03:10:41.349Z,84.04
2017-08-18T03:13:09.081Z,84.64
2017-08-18T03:15:36.793Z,85.35
2017-08-18T03:18:04.510Z,85.74
2017-08-18T03:20:32.538Z,84.87
2017-08-18T03:23:00.358Z,84.03
2017-08-18T03:25:28.044Z,84.49
2017-08-18T03:27:55.825Z,84.80
2017-08-18T03:30:23.541Z,84.21
2017-08-18T03:32:51.248Z,84.02
2017-08-18T03:35:18.968Z,84.17
2017-08-18T03:37:46.749Z,84.35
2017-08-18T03:40:14.442Z,84.17
2017-08-18T03:42:42.164Z,84.06
2017-08-18T03:45:09.944Z,84.08
2017-08-18T03:47:37.676Z,84.66
2017-08-18T03:50:05.413Z,84.25
2017-08-18T03:52:33.391Z,84.95
2017-08-18T03:55:01.113Z,84.61
2017-08-18T03:57:28.855Z,85.14
2017-08-18T03:59:56.558Z,84.93
2017-08-18T04:02:24.501Z,84.55
2017-08-18T04:04:52.235Z,84.68
2017-08-18T04:07:20.013Z,84.57
2017-08-18T04:09:47.692Z,84.71
2017-08-18T04:12:15.430Z,84.94
2017-08-18T04:14:43.125Z,84.75
2017-08-18T04:17:10.866Z,84.94
2017-08-18T04:19:38.706Z,84.65
2017-08-18T04:22:06.391Z,84.65
2017-08-18T04:24:34.141Z,84.91
2017-08-18T04:27:01.887Z,85.31
2017-08-18T04:29:29.595Z,84.68
2017-08-18T04:31:57.369Z,85.05
2017-08-18T04:34:25.121Z,85.71
2017-08-18T04:36:53.954Z,85.61
2017-08-18T04:39:21.615Z,85.26
2017-08-18T04:41:49.337Z,84.74
2017-08-18T04:44:17.067Z,84.57
2017-08-18T04:46:44.761Z,84.49
2017-08-18T04:49:12.461Z,84.96
2017-08-18T04:51:40.212Z,84.69
2017-08-18T04:54:07.934Z,84.63
2017-08-18T04:56:35.653Z,84.84
2017-08-18T04:59:03.433Z,85.36
2017-08-18T05:01:31.153Z,85.14
2017-08-18T05:03:58.901Z,84.88
2017-08-18T05:06:26.678Z,84.40
2017-08-18T05:08:54.428Z,84.22
2017-08-18T05:11:22.130Z,84.39
2017-08-18T05:13:50.097Z,83.95
2017-08-18T05:16:17.822Z,84.20
2017-08-18T05:18:45.584Z,83.35
2017-08-18T05:21:13.330Z,83.14
2017-08-18T05:23:41.123Z,83.24
2017-08-18T05:26:08.850Z,82.47
2017-08-18T05:28:36.597Z,82.25
2017-08-18T05:31:04.321Z,81.63
2017-08-18T05:33:32.138Z,81.18
2017-08-18T05:35:59.939Z,80.30
2017-08-18T05:38:27.652Z,79.42
2017-08-18T05:40:55.390Z,79.21
2017-08-18T05:43:23.144Z,79.63
2017-08-18T05:45:50.865Z,79.45
2017-08-18T05:48:18.635Z,78.55
2017-08-18T05:50:46.417Z,76.84
2017-08-18T05:53:14.174Z,76.83
2017-08-18T05:55:41.936Z,75.49
2017-08-18T05:58:09.909Z,74.09
2017-08-18T06:00:37.727Z,74.14
2017-08-18T06:03:05.441Z,75.34
2017-08-18T06:05:33.141Z,74.87
2017-08-18T06:08:00.919Z,75.40
2017-08-18T06:10:28.696Z,73.97
2017-08-18T06:12:56.483Z,73.71
2017-08-18T06:15:24.976Z,73.63
2017-08-18T06:17:52.740Z,73.00
2017-08-18T06:20:20.536Z,71.07
2017-08-18T06:22:48.297Z,72.64
2017-08-18T06:25:16.083Z,70.99
2017-08-18T06:27:43.843Z,71.05
2017-08-18T06:30:11.692Z,69.96
2017-08-18T06:32:39.469Z,72.03
2017-08-18T06:35:07.254Z,72.65
2017-08-18T06:37:35.028Z,73.30
2017-08-18T06:40:02.729Z,71.85
2017-08-18T06:42:30.441Z,71.28
2017-08-18T06:44:58.183Z,70.93
2017-08-18T06:47:25.903Z,71.16
2017-08-18T06:49:53.655Z,70.36
2017-08-18T06:52:21.382Z,69.40
2017-08-18T06:54:49.145Z,69.90
2017-08-18T06:57:16.893Z,68.18
2017-08-18T06:59:44.632Z,67.36
2017-08-18T07:02:12.405Z,67.42
2017-08-18T07:04:40.203Z,69.07
2017-08-18T07:07:08.006Z,68.24
2017-08-18T07:09:35.747Z,67.61
2017-08-18T07:12:03.564Z,67.95
2017-08-18T07:14:31.326Z,66.38
2017-08-18T07:16:59.050Z,65.98
2017-08-18T07:19:26.819Z,66.97
2017-08-18T07:21:54.554Z,65.38
2017-08-18T07:24:22.321Z,66.31
2017-08-18T07:26:50.145Z,62.97
2017-08-18T07:29:17.962Z,63.54
2017-08-18T07:31:45.885Z,63.55
2017-08-18T07:34:13.610Z,64.31
2017-08-18T07:36:41.392Z,63.17
2017-08-18T07:39:09.161Z,64.14
2017-08-18T07:41:36.859Z,64.51
2017-08-18T07:44:04.600Z,63.35
2017-08-18T07:46:32.321Z,64.18
2017-08-18T07:49:00.112Z,63.05
2017-08-18T07:51:27.826Z,64.09
2017-08-18T07:53:55.589Z,63.96
2017-08-18T07:56:23.305Z,63.17
2017-08-18T07:58:52.281Z,63.22
2017-08-18T08:01:20.051Z,63.11
2017-08-18T08:03:47.756Z,61.97
2017-08-18T08:06:15.472Z,62.52
2017-08-18T08:08:43.221Z,58.32
2017-08-18T08:11:10.916Z,59.30
2017-08-18T08:13:38.690Z,60.20
2017-08-18T08:16:06.482Z,61.40
2017-08-18T08:18:34.237Z,62.26
2017-08-18T08:21:01.992Z,61.75
2017-08-18T08:23:29.826Z,61.16
2017-08-18T08:25:57.636Z,59.18
2017-08-18T08:28:25.419Z,59.78
2017-08-18T08:30:53.205Z,60.00
2017-08-18T08:33:21.012Z,59.07
2017-08-18T08:35:49.854Z,57.44
2017-08-18T08:38:18.662Z,58.62
2017-08-18T08:40:46.477Z,58.36
2017-08-18T08:43:14.289Z,58.37
2017-08-18T08:45:42.006Z,56.46
2017-08-18T08:48:09.721Z,57.10
2017-08-18T08:50:37.516Z,57.34
2017-08-18T08:53:05.298Z,57.12
2017-08-18T08:55:33.102Z,55.56
2017-08-18T08:58:00.861Z,56.06
2017-08-18T09:00:28.643Z,54.33
2017-08-18T09:02:56.338Z,54.30
2017-08-18T09:05:24.118Z,54.54
2017-08-18T09:07:51.821Z,55.13
2017-08-18T09:10:19.530Z,55.80
2017-08-18T09:12:47.324Z,54.23
2017-08-18T09:15:15.077Z,53.79
2017-08-18T09:17:42.848Z,54.82
2017-08-18T09:20:10.670Z,54.67
2017-08-18T09:22:38.429Z,51.01
2017-08-18T09:25:06.222Z,51.51
2017-08-18T09:27:33.928Z,53.10
2017-08-18T09:30:01.704Z,52.12
2017-08-18T09:32:29.459Z,51.79
2017-08-18T09:34:57.149Z,51.56
2017-08-18T09:37:24.868Z,52.26
2017-08-18T09:39:52.667Z,53.06
2017-08-18T09:42:20.382Z,53.73
2017-08-18T09:44:48.092Z,53.01
2017-08-18T09:47:15.916Z,52.70
2017-08-18T09:49:55.523Z,52.60
2017-08-18T09:52:38.934Z,53.14
2017-08-18T09:55:18.529Z,52.32
2017-08-18T09:57:58.005Z,52.53
2017-08-18T10:00:25.779Z,51.50
2017-08-18T10:02:53.485Z,50.98
2017-08-18T10:05:21.310Z,52.17
2017-08-18T10:07:49.045Z,51.25
2017-08-18T10:10:16.770Z,50.73
2017-08-18T10:12:44.539Z,50.19
2017-08-18T10:15:12.321Z,47.52
2017-08-18T10:17:40.072Z,49.00
2017-08-18T10:20:07.892Z,47.33
2017-08-18T10:22:35.655Z,46.17
2017-08-18T10:25:03.474Z,46.97
2017-08-18T10:27:31.267Z,46.79
2017-08-18T10:29:59.039Z,47.86
2017-08-18T10:32:26.763Z,48.03
2017-08-18T10:34:54.548Z,47.11
2017-08-18T10:37:22.327Z,47.72
2017-08-18T10:39:50.075Z,45.94
2017-08-18T10:42:17.900Z,46.19
2017-08-18T10:44:45.665Z,45.49
2017-08-18T10:47:13.407Z,46.67
2017-08-18T10:49:41.180Z,48.04
2017-08-18T10:52:08.959Z,46.39
2017-08-18T10:54:36.825Z,47.07
2017-08-18T10:57:04.665Z,47.99
2017-08-18T10:59:32.466Z,46.49
2017-08-18T11:02:00.241Z,47.44
2017-08-18T11:04:28.014Z,47.25
2017-08-18T11:06:55.772Z,48.96
2017-08-18T11:09:23.515Z,47.66
2017-08-18T11:11:51.329Z,43.06
2017-08-18T11:14:19.140Z,42.49
2017-08-18T11:16:46.944Z,46.29
2017-08-18T11:19:14.739Z,48.69
2017-08-18T11:21:42.461Z,45.13
2017-08-18T11:24:10.247Z,45.06
2017-08-18T11:26:38.050Z,44.78
2017-08-18T11:29:06.363Z,44.31
2017-08-18T11:31:34.165Z,44.87
2017-08-18T11:34:02.494Z,45.24
2017-08-18T11:36:32.106Z,45.58
2017-08-18T11:38:59.872Z,45.63
2017-08-18T11:41:27.616Z,46.75
2017-08-18T11:43:55.378Z,46.68
2017-08-18T11:46:23.112Z,46.36
2017-08-18T11:48:51.013Z,46.91
2017-08-18T11:51:18.927Z,46.35
2017-08-18T11:53:46.680Z,45.05
2017-08-18T11:56:14.755Z,45.48
2017-08-18T11:58:43.679Z,44.50
2017-08-18T12:01:11.451Z,44.77
2017-08-18T12:03:39.239Z,46.03
2017-08-18T12:06:07.844Z,46.82
2017-08-18T12:08:35.690Z,45.93
2017-08-18T12:11:03.450Z,45.19
2017-08-18T12:13:31.235Z,44.95
2017-08-18T12:15:59.012Z,45.28
2017-08-18T12:18:26.770Z,45.65
2017-08-18T12:20:54.545Z,46.11
2017-08-18T12:23:22.293Z,45.45
2017-08-18T12:25:50.134Z,42.01
2017-08-18T12:28:17.913Z,43.35
2017-08-18T12:30:45.702Z,43.56
2017-08-18T12:33:13.452Z,43.43
2017-08-18T12:35:41.223Z,43.15
2017-08-18T12:38:09.037Z,44.97
2017-08-18T12:40:36.882Z,44.73
2017-08-18T12:43:04.721Z,46.14
2017-08-18T12:45:32.526Z,44.77
2017-08-18T12:48:00.242Z,42.34
2017-08-18T12:50:27.984Z,41.33
2017-08-18T12:52:56.094Z,42.42
2017-08-18T12:55:23.937Z,41.84
2017-08-18T12:57:51.650Z,42.41
2017-08-18T13:00:19.456Z,39.03
2017-08-18T13:02:47.286Z,42.90
2017-08-18T13:05:15.010Z,40.85
2017-08-18T13:07:42.758Z,41.16
2017-08-18T13:10:10.463Z,39.21
2017-08-18T13:12:38.161Z,38.94
2017-08-18T13:15:05.935Z,38.83
2017-08-18T13:17:33.712Z,38.38
2017-08-18T13:20:01.515Z,37.79
2017-08-18T13:22:30.263Z,37.74
2017-08-18T13:24:59.202Z,39.20
2017-08-18T13:27:26.982Z,40.82
2017-08-18T13:29:54.794Z,39.01
2017-08-18T13:32:22.644Z,37.19
2017-08-18T13:34:51.544Z,41.73
2017-08-18T13:37:20.397Z,41.31
2017-08-18T13:39:48.144Z,38.17
2017-08-18T13:42:16.060Z,38.46
2017-08-18T13:44:43.838Z,35.88
2017-08-18T13:47:11.612Z,38.46
2017-08-18T13:49:39.439Z,39.88
2017-08-18T13:52:07.945Z,38.57
2017-08-18T13:54:35.762Z,40.33
2017-08-18T13:57:04.806Z,42.28
2017-08-18T13:59:32.612Z,44.86
2017-08-18T14:02:01.545Z,45.37
2017-08-18T14:04:29.344Z,45.22
2017-08-18T14:06:58.327Z,40.68
2017-08-18T14:09:26.083Z,41.68
2017-08-18T14:11:54.012Z,44.37
2017-08-18T14:14:21.809Z,45.13
2017-08-18T14:16:49.575Z,45.99
2017-08-18T14:19:17.351Z,44.40
2017-08-18T14:21:45.148Z,41.08
2017-08-18T14:24:12.898Z,44.04
2017-08-18T14:26:46.204Z,40.94
2017-08-18T14:29:13.953Z,40.56
2017-08-18T14:31:41.802Z,41.27
2017-08-18T14:34:09.528Z,41.53
2017-08-18T14:36:37.314Z,40.36
2017-08-18T14:39:05.423Z,42.14
2017-08-18T14:41:33.140Z,42.29
2017-08-18T14:44:00.911Z,39.97
2017-08-18T14:46:28.679Z,42.65
2017-08-18T14:48:56.387Z,43.58
2017-08-18T14:51:24.171Z,40.80
2017-08-18T14:53:51.877Z,42.73
2017-08-18T14:56:19.639Z,41.45
2017-08-18T14:58:47.384Z,41.56
2017-08-18T15:01:15.199Z,39.43
2017-08-18T15:03:42.958Z,43.61
2017-08-18T15:06:11.929Z,40.35
2017-08-18T15:08:39.675Z,40.09
2017-08-18T15:11:07.425Z,40.28
2017-08-18T15:13:35.181Z,38.69
2017-08-18T15:16:02.883Z,37.97
2017-08-18T15:18:31.491Z,37.89
2017-08-18T15:20:59.277Z,40.13
2017-08-18T15:23:27.087Z,38.49
2017-08-18T15:25:54.813Z,41.56
2017-08-18T15:28:22.497Z,40.99
2017-08-18T15:30:50.307Z,42.01
2017-08-18T15:33:18.074Z,41.50
2017-08-18T15:35:45.807Z,41.52
2017-08-18T15:38:13.518Z,41.12
2017-08-18T15:40:41.307Z,40.67
2017-08-18T15:43:09.118Z,43.31
2017-08-18T15:45:36.838Z,41.97
2017-08-18T15:48:04.705Z,43.62
2017-08-18T15:50:32.441Z,45.47
2017-08-18T15:53:00.180Z,48.07
2017-08-18T15:55:27.971Z,49.86
2017-08-18T15:57:55.706Z,49.38
2017-08-18T16:00:23.511Z,50.06
2017-08-18T16:02:51.251Z,49.48
2017-08-18T16:05:19.023Z,50.42
2017-08-18T16:07:46.760Z,52.14
2017-08-18T16:10:14.486Z,52.03
2017-08-18T16:12:42.194Z,52.55
2017-08-18T16:15:10.008Z,52.11
2017-08-18T16:17:37.772Z,53.06
2017-08-18T16:20:05.593Z,54.38
2017-08-18T16:22:33.318Z,53.91
2017-08-18T16:25:01.101Z,53.86
2017-08-18T16:27:28.783Z,53.28
2017-08-18T16:29:56.560Z,54.89
2017-08-18T16:32:24.356Z,55.08
2017-08-18T16:34:52.095Z,57.43
2017-08-18T16:37:19.832Z,56.37
2017-08-18T16:39:47.632Z,55.94
2017-08-18T16:42:15.390Z,55.34
2017-08-18T16:44:43.173Z,55.72
2017-08-18T16:47:11.010Z,55.94
2017-08-18T16:49:38.746Z,56.24
2017-08-18T16:52:06.565Z,54.69
2017-08-18T16:54:34.358Z,55.18
2017-08-18T16:57:02.173Z,56.33
2017-08-18T16:59:29.871Z,56.91
2017-08-18T17:01:57.610Z,56.84
2017-08-18T17:04:25.344Z,57.31
2017-08-18T17:06:53.158Z,57.35
2017-08-18T17:09:20.931Z,57.76
2017-08-18T17:11:48.767Z,56.43
2017-08-18T17:14:16.558Z,56.60
2017-08-18T17:16:44.332Z,56.73
2017-08-18T17:19:12.265Z,56.96
2017-08-18T17:21:39.989Z,57.47
2017-08-18T17:24:07.723Z,57.01
2017-08-18T17:26:35.511Z,57.95
2017-08-18T17:29:03.275Z,58.56
2017-08-18T17:31:31.055Z,58.96
2017-08-18T17:33:58.775Z,58.99
2017-08-18T17:36:26.583Z,59.05
2017-08-18T17:38:55.454Z,59.00
2017-08-18T17:41:23.254Z,58.99
2017-08-18T17:43:51.026Z,59.48
2017-08-18T17:46:19.232Z,61.56
2017-08-18T17:48:46.976Z,61.79
2017-08-18T17:51:14.820Z,61.35
2017-08-18T17:53:42.598Z,60.88
2017-08-18T17:56:10.434Z,61.07
2017-08-18T17:58:38.155Z,60.21
2017-08-18T18:01:06.280Z,59.57
2017-08-18T18:03:35.049Z,61.07
2017-08-18T18:06:02.784Z,60.96
2017-08-18T18:08:30.584Z,60.24
2017-08-18T18:10:59.369Z,60.18
2017-08-18T18:13:27.187Z,59.83
2017-08-18T18:15:54.995Z,60.75
2017-08-18T18:18:22.739Z,60.73
2017-08-18T18:20:50.478Z,60.40
2017-08-18T18:23:18.330Z,61.04
2017-08-18T18:25:46.219Z,61.00
2017-08-18T18:28:13.951Z,60.30
2017-08-18T18:30:42.074Z,60.41
2017-08-18T18:33:10.801Z,59.98
2017-08-18T18:35:38.838Z,60.16
2017-08-18T18:38:07.803Z,61.04
2017-08-18T18:40:35.604Z,61.51
2017-08-18T18:43:03.450Z,61.51
2017-08-18T18:45:32.289Z,60.89
2017-08-18T18:48:01.463Z,61.45
2017-08-18T18:50:29.307Z,61.75
2017-08-18T18:52:57.299Z,61.95
2017-08-18T18:55:25.163Z,61.61
2017-08-18T18:57:53.004Z,62.14
2017-08-18T19:00:20.822Z,62.18
2017-08-18T19:02:48.682Z,62.01
2017-08-18T19:05:17.162Z,61.76
2017-08-18T19:07:45.029Z,62.76
2017-08-18T19:10:13.906Z,62.45
2017-08-18T19:12:42.252Z,62.71
2017-08-18T19:15:10.039Z,64.08
2017-08-18T19:17:37.917Z,64.82
2017-08-18T19:20:05.737Z,64.68
2017-08-18T19:22:33.622Z,65.37
2017-08-18T19:25:01.394Z,65.14
2017-08-18T19:27:29.186Z,65.34
2017-08-18T19:29:57.012Z,65.58
2017-08-18T19:32:24.963Z,64.92
2017-08-18T19:34:52.737Z,63.45
2017-08-18T19:37:20.492Z,62.90
2017-08-18T19:39:48.319Z,62.84
2017-08-18T19:42:16.090Z,62.93
2017-08-18T19:44:43.846Z,64.50
2017-08-18T19:47:11.818Z,66.57
2017-08-18T19:49:39.595Z,66.99
2017-08-18T19:52:07.377Z,67.12
2017-08-18T19:54:35.183Z,67.18
2017-08-18T19:57:02.975Z,66.88
2017-08-18T19:59:31.953Z,66.13
2017-08-18T20:01:59.699Z,66.23
2017-08-18T20:04:27.522Z,65.61
2017-08-18T20:06:55.325Z,65.18
2017-08-18T20:09:23.192Z,66.37
2017-08-18T20:11:51.706Z,66.79
2017-08-18T20:14:19.495Z,66.96
2017-08-18T20:16:48.357Z,67.23
2017-08-18T20:19:16.248Z,68.34
2017-08-18T20:21:44.049Z,68.15
2017-08-18T20:24:11.819Z,68.75
2017-08-18T20:26:39.692Z,68.20
2017-08-18T20:29:07.543Z,67.52
2017-08-18T20:31:35.389Z,67.44
2017-08-18T20:34:03.229Z,67.40
2017-08-18T20:36:30.965Z,66.90
2017-08-18T20:38:58.752Z,66.94
2017-08-18T20:41:27.256Z,67.28
2017-08-18T20:43:55.000Z,67.20
2017-08-18T20:46:22.757Z,68.04
2017-08-18T20:48:50.555Z,69.28
2017-08-18T20:51:18.259Z,69.33
2017-08-18T20:53:46.031Z,68.91
2017-08-18T20:56:13.931Z,69.12
2017-08-18T20:58:41.684Z,69.05
2017-08-18T21:01:09.461Z,68.21
2017-08-18T21:03:37.179Z,68.06
2017-08-18T21:06:04.966Z,68.31
2017-08-18T21:08:32.732Z,68.69
2017-08-18T21:11:00.456Z,69.52
2017-08-18T21:13:28.263Z,70.17
2017-08-18T21:15:56.067Z,71.10
2017-08-18T21:18:23.883Z,69.36
2017-08-18T21:20:52.000Z,69.86
2017-08-18T21:23:19.934Z,70.61
2017-08-18T21:25:49.123Z,70.90
2017-08-18T21:28:17.404Z,70.85
2017-08-18T21:30:45.151Z,71.98
2017-08-18T21:33:13.283Z,71.66
2017-08-18T21:35:41.048Z,71.69
2017-08-18T21:38:08.863Z,72.22
2017-08-18T21:40:37.579Z,71.30
2017-08-18T21:43:05.320Z,71.70
2017-08-18T21:45:33.143Z,71.60
2017-08-18T21:48:00.942Z,71.21
2017-08-18T21:50:28.718Z,70.72
2017-08-18T21:52:56.790Z,69.18
2017-08-18T21:55:24.628Z,63.94
2017-08-18T21:57:52.465Z,64.67
2017-08-18T22:00:20.189Z,60.86
2017-08-18T22:02:48.021Z,57.16
2017-08-18T22:05:15.781Z,55.86
2017-08-18T22:07:43.552Z,56.26
2017-08-18T22:10:11.291Z,58.81
2017-08-18T22:12:39.000Z,60.90
2017-08-18T22:15:06.789Z,62.55
2017-08-18T22:17:34.599Z,62.56
2017-08-18T22:20:02.327Z,58.01
2017-08-18T22:22:30.064Z,57.05
2017-08-18T22:24:57.816Z,58.40
2017-08-18T22:27:25.567Z,58.11
2017-08-18T22:30:10.158Z,57.09
2017-08-18T22:32:38.143Z,57.34
2017-08-18T22:35:06.014Z,58.46
2017-08-18T22:37:33.780Z,59.61
2017-08-18T22:40:01.543Z,57.52
2017-08-18T22:42:29.300Z,57.08
2017-08-18T22:44:57.197Z,58.60
2017-08-18T22:47:25.229Z,56.68
2017-08-18T22:49:53.120Z,56.82
2017-08-18T22:52:20.924Z,56.57
2017-08-18T22:54:48.775Z,57.81
2017-08-18T22:57:16.481Z,58.96
2017-08-18T22:59:44.230Z,56.94
2017-08-18T23:02:11.955Z,55.07
2017-08-18T23:04:39.748Z,54.52
2017-08-18T23:07:07.500Z,54.52
2017-08-18T23:09:35.259Z,54.21
2017-08-18T23:12:02.984Z,54.34
2017-08-18T23:14:30.760Z,55.21
2017-08-18T23:16:58.532Z,54.57
2017-08-18T23:19:26.231Z,54.40
2017-08-18T23:21:53.947Z,54.22
2017-08-18T23:24:21.743Z,56.23
2017-08-18T23:26:49.465Z,57.67
2017-08-18T23:29:17.156Z,58.44
2017-08-18T23:31:44.873Z,60.09
2017-08-18T23:34:12.558Z,61.48
2017-08-18T23:36:40.265Z,61.01
2017-08-18T23:39:07.998Z,62.73
2017-08-18T23:41:36.798Z,62.74
2017-08-18T23:44:04.500Z,58.86
2017-08-18T23:46:32.260Z,59.42
2017-08-18T23:49:00.054Z,60.31
2017-08-18T23:51:27.828Z,60.20
2017-08-18T23:53:55.528Z,59.08
2017-08-18T23:56:23.227Z,59.05
2017-08-18T23:58:51.027Z,58.82
